sensor_id;sensor_type;location;lat;lon;timestamp;pressure;altitude;pressure_sealevel;temperature;humidity
49104;BME280;34915;52.926;11.116;2023-05-23T00:01:32;101106.28;;;16.51;100.00
49104;BME280;34915;52.926;11.116;2023-05-23T00:04:01;101098.97;;;16.53;100.00
49104;BME280;34915;52.926;11.116;2023-05-23T00:06:27;101095.59;;;16.51;100.00
49104;BME280;34915;52.926;11.116;2023-05-23T00:08:53;101095.28;;;16.35;100.00
49104;BME280;34915;52.926;11.116;2023-05-23T00:11:18;101095.81;;;16.29;100.00
49104;BME280;34915;52.926;11.116;2023-05-23T00:13:44;101093.88;;;16.31;100.00
49104;BME280;34915;52.926;11.116;2023-05-23T00:16:10;101081.81;;;16.46;100.00
49104;BME280;34915;52.926;11.116;2023-05-23T00:18:37;101081.53;;;16.49;100.00
49104;BME280;34915;52.926;11.116;2023-05-23T00:21:04;101077.84;;;16.50;100.00
49104;BME280;34915;52.926;11.116;2023-05-23T00:23:30;101073.03;;;16.44;100.00
49104;BME280;34915;52.926;11.116;2023-05-23T00:25:58;101075.84;;;16.42;100.00
49104;BME280;34915;52.926;11.116;2023-05-23T00:28:24;101062.06;;;16.47;100.00
49104;BME280;34915;52.926;11.116;2023-05-23T00:30:50;101064.59;;;16.48;100.00
49104;BME280;34915;52.926;11.116;2023-05-23T00:33:16;101061.53;;;16.53;100.00
49104;BME280;34915;52.926;11.116;2023-05-23T00:35:46;101052.78;;;16.51;100.00
49104;BME280;34915;52.926;11.116;2023-05-23T00:38:12;101056.44;;;16.50;100.00
49104;BME280;34915;52.926;11.116;2023-05-23T00:40:38;101060.97;;;16.40;100.00
49104;BME280;34915;52.926;11.116;2023-05-23T00:43:04;101068.25;;;16.38;100.00
49104;BME280;34915;52.926;11.116;2023-05-23T00:45:30;101077.81;;;16.31;100.00
49104;BME280;34915;52.926;11.116;2023-05-23T00:47:55;101072.22;;;16.34;100.00
49104;BME280;34915;52.926;11.116;2023-05-23T00:50:23;101065.16;;;16.42;100.00
49104;BME280;34915;52.926;11.116;2023-05-23T00:52:50;101053.06;;;16.48;100.00
49104;BME280;34915;52.926;11.116;2023-05-23T00:55:15;101061.22;;;16.46;100.00
49104;BME280;34915;52.926;11.116;2023-05-23T00:57:41;101052.66;;;16.43;100.00
49104;BME280;34915;52.926;11.116;2023-05-23T01:00:11;101050.25;;;16.40;100.00
49104;BME280;34915;52.926;11.116;2023-05-23T01:02:47;101049.38;;;16.30;100.00
49104;BME280;34915;52.926;11.116;2023-05-23T01:05:16;101063.44;;;16.32;100.00
49104;BME280;34915;52.926;11.116;2023-05-23T01:07:46;101064.06;;;16.45;100.00
49104;BME280;34915;52.926;11.116;2023-05-23T01:10:13;101063.78;;;16.48;100.00
49104;BME280;34915;52.926;11.116;2023-05-23T01:20:54;101099.38;;;16.09;100.00
49104;BME280;34915;52.926;11.116;2023-05-23T01:29:21;101117.00;;;15.91;100.00
49104;BME280;34915;52.926;11.116;2023-05-23T01:31:54;101113.38;;;15.92;100.00
49104;BME280;34915;52.926;11.116;2023-05-23T01:34:21;101114.78;;;15.96;100.00
49104;BME280;34915;52.926;11.116;2023-05-23T01:36:53;101108.00;;;15.92;100.00
49104;BME280;34915;52.926;11.116;2023-05-23T01:39:20;101118.16;;;15.98;100.00
49104;BME280;34915;52.926;11.116;2023-05-23T01:41:48;101110.16;;;15.98;100.00
49104;BME280;34915;52.926;11.116;2023-05-23T01:44:14;101115.50;;;15.98;100.00
49104;BME280;34915;52.926;11.116;2023-05-23T01:46:40;101114.53;;;15.99;100.00
49104;BME280;34915;52.926;11.116;2023-05-23T01:49:07;101118.16;;;15.98;100.00
49104;BME280;34915;52.926;11.116;2023-05-23T01:51:34;101121.81;;;15.97;100.00
49104;BME280;34915;52.926;11.116;2023-05-23T01:54:00;101130.28;;;16.02;100.00
49104;BME280;34915;52.926;11.116;2023-05-23T01:56:27;101127.09;;;16.08;100.00
49104;BME280;34915;52.926;11.116;2023-05-23T01:58:53;101128.53;;;16.12;100.00
49104;BME280;34915;52.926;11.116;2023-05-23T02:01:21;101124.16;;;16.11;100.00
49104;BME280;34915;52.926;11.116;2023-05-23T02:03:47;101128.06;;;16.07;100.00
49104;BME280;34915;52.926;11.116;2023-05-23T02:06:13;101122.72;;;16.07;100.00
49104;BME280;34915;52.926;11.116;2023-05-23T02:08:39;101125.78;;;16.03;100.00
49104;BME280;34915;52.926;11.116;2023-05-23T02:11:04;101126.50;;;16.05;100.00
49104;BME280;34915;52.926;11.116;2023-05-23T02:13:32;101128.59;;;16.01;100.00
49104;BME280;34915;52.926;11.116;2023-05-23T02:15:58;101133.66;;;16.04;100.00
49104;BME280;34915;52.926;11.116;2023-05-23T02:18:23;101121.53;;;16.00;100.00
49104;BME280;34915;52.926;11.116;2023-05-23T02:20:50;101131.97;;;16.03;100.00
49104;BME280;34915;52.926;11.116;2023-05-23T02:23:18;101128.59;;;16.01;100.00
49104;BME280;34915;52.926;11.116;2023-05-23T02:25:44;101128.59;;;16.01;100.00
49104;BME280;34915;52.926;11.116;2023-05-23T02:28:09;101123.50;;;15.98;100.00
49104;BME280;34915;52.926;11.116;2023-05-23T02:30:37;101114.78;;;15.96;100.00
49104;BME280;34915;52.926;11.116;2023-05-23T02:33:06;101124.94;;;16.02;100.00
49104;BME280;34915;52.926;11.116;2023-05-23T02:35:32;101125.22;;;15.99;100.00
49104;BME280;34915;52.926;11.116;2023-05-23T02:37:58;101126.88;;;16.00;100.00
49104;BME280;34915;52.926;11.116;2023-05-23T02:40:24;101119.88;;;15.99;100.00
49104;BME280;34915;52.926;11.116;2023-05-23T02:42:52;101123.50;;;15.98;100.00
49104;BME280;34915;52.926;11.116;2023-05-23T02:45:17;101112.28;;;16.04;100.00
49104;BME280;34915;52.926;11.116;2023-05-23T02:47:43;101112.47;;;16.12;100.00
49104;BME280;34915;52.926;11.116;2023-05-23T02:50:09;101119.91;;;16.09;100.00
49104;BME280;34915;52.926;11.116;2023-05-23T02:52:35;101115.94;;;16.03;100.00
49104;BME280;34915;52.926;11.116;2023-05-23T02:55:00;101122.72;;;16.07;100.00
49104;BME280;34915;52.926;11.116;2023-05-23T02:57:26;101116.66;;;16.05;100.00
49104;BME280;34915;52.926;11.116;2023-05-23T02:59:51;101104.66;;;15.90;100.00
49104;BME280;34915;52.926;11.116;2023-05-23T03:02:17;101124.22;;;16.00;100.00
49104;BME280;34915;52.926;11.116;2023-05-23T03:04:42;101123.50;;;15.98;100.00
49104;BME280;34915;52.926;11.116;2023-05-23T03:07:08;101124.47;;;15.97;100.00
49104;BME280;34915;52.926;11.116;2023-05-23T03:09:35;101128.03;;;15.98;100.00
49104;BME280;34915;52.926;11.116;2023-05-23T03:12:01;101125.50;;;15.96;100.00
49104;BME280;34915;52.926;11.116;2023-05-23T03:14:26;101128.31;;;16.04;100.00
49104;BME280;34915;52.926;11.116;2023-05-23T03:16:52;101126.63;;;16.03;100.00
49104;BME280;34915;52.926;11.116;2023-05-23T03:19:17;101125.50;;;16.06;100.00
49104;BME280;34915;52.926;11.116;2023-05-23T03:21:43;101122.16;;;16.04;100.00
49104;BME280;34915;52.926;11.116;2023-05-23T03:24:08;101114.81;;;16.06;100.00
49104;BME280;34915;52.926;11.116;2023-05-23T03:26:34;101121.75;;;16.08;100.00
49104;BME280;34915;52.926;11.116;2023-05-23T03:29:00;101093.69;;;15.93;100.00
49104;BME280;34915;52.926;11.116;2023-05-23T03:31:26;101126.81;;;16.11;100.00
49104;BME280;34915;52.926;11.116;2023-05-23T03:33:51;101128.53;;;16.12;100.00
49104;BME280;34915;52.926;11.116;2023-05-23T03:36:18;101124.16;;;16.11;100.00
49104;BME280;34915;52.926;11.116;2023-05-23T03:38:43;101122.72;;;16.07;100.00
49104;BME280;34915;52.926;11.116;2023-05-23T03:41:11;101121.75;;;16.08;100.00
49104;BME280;34915;52.926;11.116;2023-05-23T03:43:36;101110.31;;;16.06;100.00
49104;BME280;34915;52.926;11.116;2023-05-23T03:46:02;101120.78;;;16.09;100.00
49104;BME280;34915;52.926;11.116;2023-05-23T03:48:27;101113.44;;;16.11;100.00
49104;BME280;34915;52.926;11.116;2023-05-23T03:50:54;101109.22;;;16.09;100.00
49104;BME280;34915;52.926;11.116;2023-05-23T03:53:20;101111.22;;;16.16;100.00
49104;BME280;34915;52.926;11.116;2023-05-23T03:55:45;101109.00;;;16.21;100.00
49104;BME280;34915;52.926;11.116;2023-05-23T03:58:11;101098.84;;;16.15;100.00
49104;BME280;34915;52.926;11.116;2023-05-23T04:00:36;101101.94;;;16.20;100.00
49104;BME280;34915;52.926;11.116;2023-05-23T04:03:02;101116.00;;;16.22;100.00
49104;BME280;34915;52.926;11.116;2023-05-23T04:05:29;101114.34;;;16.21;100.00
49104;BME280;34915;52.926;11.116;2023-05-23T04:07:54;101119.69;;;16.21;100.00
49104;BME280;34915;52.926;11.116;2023-05-23T04:10:21;101120.53;;;16.22;100.00
49104;BME280;34915;52.926;11.116;2023-05-23T04:12:46;101119.69;;;16.21;100.00
49104;BME280;34915;52.926;11.116;2023-05-23T04:15:12;101114.34;;;16.21;100.00
49104;BME280;34915;52.926;11.116;2023-05-23T04:17:38;101103.06;;;16.18;100.00
49104;BME280;34915;52.926;11.116;2023-05-23T04:20:06;101112.13;;;16.26;100.00
49104;BME280;34915;52.926;11.116;2023-05-23T04:22:32;101125.22;;;16.29;100.00
49104;BME280;34915;52.926;11.116;2023-05-23T04:24:57;101100.09;;;16.11;100.00
49104;BME280;34915;52.926;11.116;2023-05-23T04:27:25;101115.31;;;16.20;100.00
49104;BME280;34915;52.926;11.116;2023-05-23T04:29:51;101117.09;;;16.10;100.00
49104;BME280;34915;52.926;11.116;2023-05-23T04:32:17;101125.84;;;16.12;100.00
49104;BME280;34915;52.926;11.116;2023-05-23T04:34:43;101126.13;;;16.09;100.00
49104;BME280;34915;52.926;11.116;2023-05-23T04:37:09;101121.28;;;16.03;100.00
49104;BME280;34915;52.926;11.116;2023-05-23T04:39:35;101123.25;;;16.01;100.00
49104;BME280;34915;52.926;11.116;2023-05-23T04:42:02;101122.69;;;15.98;100.00
49104;BME280;34915;52.926;11.116;2023-05-23T04:44:27;101113.38;;;15.92;100.00
49104;BME280;34915;52.926;11.116;2023-05-23T04:46:54;101122.09;;;15.94;100.00
49104;BME280;34915;52.926;11.116;2023-05-23T04:49:20;101119.25;;;15.86;100.00
49104;BME280;34915;52.926;11.116;2023-05-23T04:51:47;101116.97;;;15.82;100.00
49104;BME280;34915;52.926;11.116;2023-05-23T04:54:12;101121.19;;;15.84;100.00
49104;BME280;34915;52.926;11.116;2023-05-23T04:56:38;101115.09;;;15.73;100.00
49104;BME280;34915;52.926;11.116;2023-05-23T04:59:04;101120.56;;;15.72;100.00
49104;BME280;34915;52.926;11.116;2023-05-23T05:01:30;101124.78;;;15.74;100.00
49104;BME280;34915;52.926;11.116;2023-05-23T05:03:55;101124.47;;;15.68;100.00
49104;BME280;34915;52.926;11.116;2023-05-23T05:06:22;101130.09;;;15.65;100.00
49104;BME280;34915;52.926;11.116;2023-05-23T05:08:47;101125.00;;;15.62;100.00
49104;BME280;34915;52.926;11.116;2023-05-23T05:11:13;101132.28;;;15.60;100.00
49104;BME280;34915;52.926;11.116;2023-05-23T05:13:38;101136.66;;;15.61;100.00
49104;BME280;34915;52.926;11.116;2023-05-23T05:16:04;101126.75;;;15.52;100.00
49104;BME280;34915;52.926;11.116;2023-05-23T05:18:30;101135.03;;;15.49;100.00
49104;BME280;34915;52.926;11.116;2023-05-23T05:20:55;101129.94;;;15.46;100.00
49104;BME280;34915;52.926;11.116;2023-05-23T05:23:24;101135.28;;;15.46;100.00
49104;BME280;34915;52.926;11.116;2023-05-23T05:25:50;101132.41;;;15.38;100.00
49104;BME280;34915;52.926;11.116;2023-05-23T05:28:16;101142.25;;;15.37;100.00
49104;BME280;34915;52.926;11.116;2023-05-23T05:30:41;101143.09;;;15.38;100.00
49104;BME280;34915;52.926;11.116;2023-05-23T05:33:07;101143.09;;;15.38;100.00
49104;BME280;34915;52.926;11.116;2023-05-23T05:35:36;101142.50;;;15.34;100.00
49104;BME280;34915;52.926;11.116;2023-05-23T05:38:04;101145.75;;;15.38;100.00
49104;BME280;34915;52.926;11.116;2023-05-23T05:40:33;101141.41;;;15.37;100.00
49104;BME280;34915;52.926;11.116;2023-05-23T05:43:00;101143.34;;;15.35;100.00
49104;BME280;34915;52.926;11.116;2023-05-23T05:45:26;101146.75;;;15.37;100.00
49104;BME280;34915;52.926;11.116;2023-05-23T05:47:52;101147.59;;;15.37;100.00
49104;BME280;34915;52.926;11.116;2023-05-23T05:50:17;101145.03;;;15.36;100.00
49104;BME280;34915;52.926;11.116;2023-05-23T05:52:45;101135.31;;;15.35;100.00
49104;BME280;34915;52.926;11.116;2023-05-23T05:55:11;101149.69;;;15.34;100.00
49104;BME280;34915;52.926;11.116;2023-05-23T05:57:37;101152.59;;;15.31;100.00
49104;BME280;34915;52.926;11.116;2023-05-23T06:00:07;101144.84;;;15.17;100.00
49104;BME280;34915;52.926;11.116;2023-05-23T06:02:44;101142.69;;;15.22;100.00
49104;BME280;34915;52.926;11.116;2023-05-23T06:05:12;101146.22;;;15.23;100.00
49104;BME280;34915;52.926;11.116;2023-05-23T06:07:38;101153.81;;;15.16;100.00
49104;BME280;34915;52.926;11.116;2023-05-23T06:10:05;101136.91;;;15.06;100.00
49104;BME280;34915;52.926;11.116;2023-05-23T06:12:32;101150.97;;;15.08;100.00
49104;BME280;34915;52.926;11.116;2023-05-23T06:14:57;101159.69;;;15.10;100.00
49104;BME280;34915;52.926;11.116;2023-05-23T06:17:23;101160.19;;;15.04;100.00
49104;BME280;34915;52.926;11.116;2023-05-23T06:19:48;101165.25;;;15.07;100.00
49104;BME280;34915;52.926;11.116;2023-05-23T06:22:14;101165.00;;;15.10;100.00
49104;BME280;34915;52.926;11.116;2023-05-23T06:24:40;101163.59;;;15.06;100.00
49104;BME280;34915;52.926;11.116;2023-05-23T06:27:05;101169.44;;;15.00;100.00
49104;BME280;34915;52.926;11.116;2023-05-23T06:29:31;101169.91;;;14.94;100.00
49104;BME280;34915;52.926;11.116;2023-05-23T06:31:56;101170.16;;;14.91;100.00
49104;BME280;34915;52.926;11.116;2023-05-23T06:34:24;101173.81;;;14.90;100.00
49104;BME280;34915;52.926;11.116;2023-05-23T06:36:50;101168.75;;;14.87;100.00
49104;BME280;34915;52.926;11.116;2023-05-23T06:39:15;101175.16;;;14.85;100.00
49104;BME280;34915;52.926;11.116;2023-05-23T06:41:42;101168.38;;;14.81;100.00
49104;BME280;34915;52.926;11.116;2023-05-23T06:44:07;101159.28;;;14.73;100.00
49104;BME280;34915;52.926;11.116;2023-05-23T06:46:33;101171.16;;;14.79;100.00
49104;BME280;34915;52.926;11.116;2023-05-23T06:48:58;101166.56;;;14.81;100.00
49104;BME280;34915;52.926;11.116;2023-05-23T06:51:24;101172.63;;;14.83;100.00
49104;BME280;34915;52.926;11.116;2023-05-23T06:53:49;101165.09;;;14.88;100.00
49104;BME280;34915;52.926;11.116;2023-05-23T06:56:15;101173.56;;;14.93;100.00
49104;BME280;34915;52.926;11.116;2023-05-23T06:58:41;101171.63;;;14.95;100.00
49104;BME280;34915;52.926;11.116;2023-05-23T07:01:06;101160.69;;;14.98;100.00
49104;BME280;34915;52.926;11.116;2023-05-23T07:03:32;101167.72;;;14.99;100.00
49104;BME280;34915;52.926;11.116;2023-05-23T07:05:57;101166.25;;;15.06;100.00
49104;BME280;34915;52.926;11.116;2023-05-23T07:08:23;101172.31;;;15.08;100.00
49104;BME280;34915;52.926;11.116;2023-05-23T07:10:49;101155.09;;;15.01;100.00
49104;BME280;34915;52.926;11.116;2023-05-23T07:13:14;101161.13;;;15.14;100.00
49104;BME280;34915;52.926;11.116;2023-05-23T07:15:40;101161.06;;;15.36;100.00
49104;BME280;34915;52.926;11.116;2023-05-23T07:18:06;101158.63;;;15.44;100.00
49104;BME280;34915;52.926;11.116;2023-05-23T07:20:32;101158.34;;;15.47;100.00
49104;BME280;34915;52.926;11.116;2023-05-23T07:22:58;101167.34;;;15.46;100.00
49104;BME280;34915;52.926;11.116;2023-05-23T07:25:26;101162.25;;;15.43;100.00
49104;BME280;34915;52.926;11.116;2023-05-23T07:27:52;101159.09;;;15.38;100.00
49104;BME280;34915;52.926;11.116;2023-05-23T07:30:19;101160.53;;;15.42;100.00
49104;BME280;34915;52.926;11.116;2023-05-23T07:32:47;101156.78;;;15.44;100.00
49104;BME280;34915;52.926;11.116;2023-05-23T07:35:13;101135.88;;;15.49;100.00
49104;BME280;34915;52.926;11.116;2023-05-23T07:37:39;101145.19;;;15.55;100.00
49104;BME280;34915;52.926;11.116;2023-05-23T07:40:06;101153.66;;;15.60;100.00
49104;BME280;34915;52.926;11.116;2023-05-23T07:42:35;101158.72;;;15.63;100.00
49104;BME280;34915;52.926;11.116;2023-05-23T07:45:01;101149.47;;;15.67;100.00
49104;BME280;34915;52.926;11.116;2023-05-23T07:47:27;101154.91;;;15.76;100.00
49104;BME280;34915;52.926;11.116;2023-05-23T07:49:53;101155.75;;;15.77;100.00
49104;BME280;34915;52.926;11.116;2023-05-23T07:52:18;101148.13;;;15.72;100.00
49104;BME280;34915;52.926;11.116;2023-05-23T07:54:44;101154.56;;;15.70;100.00
49104;BME280;34915;52.926;11.116;2023-05-23T07:57:10;101152.63;;;15.72;100.00
49104;BME280;34915;52.926;11.116;2023-05-23T07:59:37;101156.53;;;15.68;100.00
49104;BME280;34915;52.926;11.116;2023-05-23T08:02:02;101166.03;;;15.61;100.00
49104;BME280;34915;52.926;11.116;2023-05-23T08:04:28;101175.78;;;15.51;100.00
49104;BME280;34915;52.926;11.116;2023-05-23T08:06:54;101168.53;;;15.53;100.00
49104;BME280;34915;52.926;11.116;2023-05-23T08:09:23;101177.50;;;15.52;100.00
49104;BME280;34915;52.926;11.116;2023-05-23T08:11:48;101176.78;;;15.50;100.00
49104;BME280;34915;52.926;11.116;2023-05-23T08:14:14;101177.50;;;15.52;100.00
49104;BME280;34915;52.926;11.116;2023-05-23T08:16:39;101173.88;;;15.53;100.00
49104;BME280;34915;52.926;11.116;2023-05-23T08:19:08;101163.69;;;15.47;100.00
49104;BME280;34915;52.926;11.116;2023-05-23T08:21:35;101174.13;;;15.50;100.00
49104;BME280;34915;52.926;11.116;2023-05-23T08:24:00;101177.88;;;15.47;100.00
49104;BME280;34915;52.926;11.116;2023-05-23T08:26:26;101180.56;;;15.47;100.00
49104;BME280;34915;52.926;11.116;2023-05-23T08:29:01;101190.28;;;15.48;100.00
49104;BME280;34915;52.926;11.116;2023-05-23T08:31:28;101181.91;;;15.42;100.00
49104;BME280;34915;52.926;11.116;2023-05-23T08:33:54;101185.31;;;15.44;100.00
49104;BME280;34915;52.926;11.116;2023-05-23T08:36:19;101187.25;;;15.42;100.00
49104;BME280;34915;52.926;11.116;2023-05-23T08:38:45;101174.66;;;15.33;100.00
49104;BME280;34915;52.926;11.116;2023-05-23T08:41:18;101189.78;;;15.43;100.00
49104;BME280;34915;52.926;11.116;2023-05-23T08:43:44;101189.66;;;15.45;100.00
49104;BME280;34915;52.926;11.116;2023-05-23T08:46:11;101193.06;;;15.47;100.00
49104;BME280;34915;52.926;11.116;2023-05-23T08:48:37;101186.72;;;15.48;100.00
49104;BME280;34915;52.926;11.116;2023-05-23T08:51:04;101201.78;;;15.49;100.00
49104;BME280;34915;52.926;11.116;2023-05-23T08:53:30;101193.78;;;15.49;100.00
49104;BME280;34915;52.926;11.116;2023-05-23T08:55:57;101199.13;;;15.49;100.00
49104;BME280;34915;52.926;11.116;2023-05-23T08:58:29;101206.16;;;15.50;100.00
49104;BME280;34915;52.926;11.116;2023-05-23T09:00:57;101199.97;;;15.49;100.00
49104;BME280;34915;52.926;11.116;2023-05-23T09:03:27;101198.53;;;15.45;100.00
49104;BME280;34915;52.926;11.116;2023-05-23T09:05:54;101206.41;;;15.47;100.00
49104;BME280;34915;52.926;11.116;2023-05-23T09:08:20;101208.34;;;15.45;100.00
49104;BME280;34915;52.926;11.116;2023-05-23T09:10:50;101210.31;;;15.43;100.00
49104;BME280;34915;52.926;11.116;2023-05-23T09:13:16;101206.91;;;15.41;100.00
49104;BME280;34915;52.926;11.116;2023-05-23T09:16:01;101212.25;;;15.41;100.00
49104;BME280;34915;52.926;11.116;2023-05-23T09:18:36;101221.50;;;15.37;100.00
49104;BME280;34915;52.926;11.116;2023-05-23T09:21:02;101223.53;;;15.44;100.00
49104;BME280;34915;52.926;11.116;2023-05-23T09:23:34;101222.44;;;15.47;100.00
49104;BME280;34915;52.926;11.116;2023-05-23T09:26:04;101223.16;;;15.49;100.00
49104;BME280;34915;52.926;11.116;2023-05-23T09:28:31;101225.31;;;15.55;100.00
49104;BME280;34915;52.926;11.116;2023-05-23T09:31:02;101228.69;;;15.57;100.00
49104;BME280;34915;52.926;11.116;2023-05-23T09:33:48;101217.50;;;15.63;100.00
49104;BME280;34915;52.926;11.116;2023-05-23T09:36:15;101214.69;;;15.64;100.00
49104;BME280;34915;52.926;11.116;2023-05-23T09:39:02;101222.09;;;15.72;100.00
49104;BME280;34915;52.926;11.116;2023-05-23T09:41:33;101220.69;;;15.77;100.00
49104;BME280;34915;52.926;11.116;2023-05-23T09:44:07;101226.91;;;15.77;100.00
49104;BME280;34915;52.926;11.116;2023-05-23T09:46:34;101225.47;;;15.74;100.00
49104;BME280;34915;52.926;11.116;2023-05-23T09:49:01;101225.97;;;15.68;100.00
49104;BME280;34915;52.926;11.116;2023-05-23T09:51:28;101215.81;;;15.62;100.00
49104;BME280;34915;52.926;11.116;2023-05-23T09:53:53;101229.09;;;15.73;100.00
49104;BME280;34915;52.926;11.116;2023-05-23T09:56:19;101228.25;;;15.72;100.00
49104;BME280;34915;52.926;11.116;2023-05-23T09:58:48;101231.78;;;15.73;100.00
49104;BME280;34915;52.926;11.116;2023-05-23T10:01:15;101233.03;;;15.69;100.00
49104;BME280;34915;52.926;11.116;2023-05-23T10:03:48;101247.09;;;15.71;100.00
49104;BME280;34915;52.926;11.116;2023-05-23T10:06:40;101251.25;;;15.64;100.00
49104;BME280;34915;52.926;11.116;2023-05-23T10:09:12;101249.31;;;15.66;100.00
49104;BME280;34915;52.926;11.116;2023-05-23T10:14:57;101246.00;;;15.42;100.00
49104;BME280;34915;52.926;11.116;2023-05-23T10:20:10;101271.25;;;15.38;100.00
49104;BME280;34915;52.926;11.116;2023-05-23T10:22:39;101268.88;;;15.24;100.00
49104;BME280;34915;52.926;11.116;2023-05-23T10:25:05;101268.88;;;15.24;100.00
49104;BME280;34915;52.926;11.116;2023-05-23T10:27:33;101287.06;;;15.19;100.00
49104;BME280;34915;52.926;11.116;2023-05-23T10:29:59;101288.28;;;15.04;100.00
49104;BME280;34915;52.926;11.116;2023-05-23T10:32:28;101299.94;;;14.92;100.00
49104;BME280;34915;52.926;11.116;2023-05-23T10:37:26;101306.25;;;14.80;100.00
49104;BME280;34915;52.926;11.116;2023-05-23T10:40:02;101306.50;;;14.77;100.00
49104;BME280;34915;52.926;11.116;2023-05-23T10:47:43;101325.88;;;14.58;100.00
49104;BME280;34915;52.926;11.116;2023-05-23T10:50:13;101322.38;;;14.57;100.00
49104;BME280;34915;52.926;11.116;2023-05-23T10:52:40;101326.63;;;14.60;100.00
49104;BME280;34915;52.926;11.116;2023-05-23T10:55:13;101332.91;;;14.59;100.00
49104;BME280;34915;52.926;11.116;2023-05-23T10:57:42;101341.63;;;14.61;100.00
49104;BME280;34915;52.926;11.116;2023-05-23T11:00:15;101331.19;;;14.58;100.00
49104;BME280;34915;52.926;11.116;2023-05-23T11:02:59;101340.19;;;14.57;100.00
49104;BME280;34915;52.926;11.116;2023-05-23T11:05:27;101330.22;;;14.48;100.00
49104;BME280;34915;52.926;11.116;2023-05-23T11:08:10;101342.25;;;14.64;100.00
49104;BME280;34915;52.926;11.116;2023-05-23T11:11:00;101359.09;;;14.65;100.00
49104;BME280;34915;52.926;11.116;2023-05-23T11:16:24;101353.53;;;14.68;100.00
49104;BME280;34915;52.926;11.116;2023-05-23T11:18:50;101358.84;;;14.68;100.00
49104;BME280;34915;52.926;11.116;2023-05-23T11:21:16;101360.56;;;14.69;100.00
49104;BME280;34915;52.926;11.116;2023-05-23T11:23:44;101367.34;;;14.73;100.00
49104;BME280;34915;52.926;11.116;2023-05-23T11:26:28;101354.25;;;14.59;100.00
49104;BME280;34915;52.926;11.116;2023-05-23T11:28:55;101379.34;;;14.67;100.00
49104;BME280;34915;52.926;11.116;2023-05-23T11:31:22;101375.09;;;14.65;100.00
49104;BME280;34915;52.926;11.116;2023-05-23T11:33:51;101373.88;;;14.58;100.00
49104;BME280;34915;52.926;11.116;2023-05-23T11:36:17;101367.81;;;14.56;100.00
49104;BME280;34915;52.926;11.116;2023-05-23T11:38:42;101379.19;;;14.47;100.00
49104;BME280;34915;52.926;11.116;2023-05-23T11:41:08;101373.50;;;14.51;100.00
49104;BME280;34915;52.926;11.116;2023-05-23T11:43:34;101393.25;;;14.49;100.00
49104;BME280;34915;52.926;11.116;2023-05-23T11:46:07;101393.47;;;14.46;100.00
49104;BME280;34915;52.926;11.116;2023-05-23T11:48:33;101392.75;;;14.44;100.00
49104;BME280;34915;52.926;11.116;2023-05-23T11:50:58;101401.94;;;14.40;100.00
49104;BME280;34915;52.926;11.116;2023-05-23T11:53:26;101418.19;;;14.37;100.00
49104;BME280;34915;52.926;11.116;2023-05-23T11:58:26;101417.63;;;14.21;100.00
49104;BME280;34915;52.926;11.116;2023-05-23T12:00:57;101412.75;;;14.15;100.00
49104;BME280;34915;52.926;11.116;2023-05-23T12:03:23;101425.16;;;14.04;100.00
49104;BME280;34915;52.926;11.116;2023-05-23T12:05:49;101419.88;;;13.91;100.00
49104;BME280;34915;52.926;11.116;2023-05-23T12:08:14;101433.13;;;13.80;100.00
49104;BME280;34915;52.926;11.116;2023-05-23T12:10:51;101409.09;;;13.70;100.00
49104;BME280;34915;52.926;11.116;2023-05-23T12:13:17;101435.75;;;13.70;100.00
49104;BME280;34915;52.926;11.116;2023-05-23T12:15:43;101425.72;;;13.61;100.00
49104;BME280;34915;52.926;11.116;2023-05-23T12:18:09;101441.69;;;13.61;100.00
49104;BME280;34915;52.926;11.116;2023-05-23T12:20:35;101454.06;;;13.62;100.00
49104;BME280;34915;52.926;11.116;2023-05-23T12:23:04;101442.69;;;13.60;100.00
49104;BME280;34915;52.926;11.116;2023-05-23T12:25:39;101454.28;;;13.59;100.00
49104;BME280;34915;52.926;11.116;2023-05-23T12:28:05;101463.44;;;13.55;100.00
49104;BME280;34915;52.926;11.116;2023-05-23T12:30:40;101444.75;;;13.44;100.00
49104;BME280;34915;52.926;11.116;2023-05-23T12:33:09;101448.72;;;13.62;100.00
49104;BME280;34915;52.926;11.116;2023-05-23T12:35:35;101450.66;;;13.60;100.00
49104;BME280;34915;52.926;11.116;2023-05-23T12:38:00;101459.59;;;13.59;100.00
49104;BME280;34915;52.926;11.116;2023-05-23T12:40:27;101451.50;;;13.60;100.00
49104;BME280;34915;52.926;11.116;2023-05-23T12:42:56;101461.59;;;13.68;100.00
49104;BME280;34915;52.926;11.116;2023-05-23T12:45:31;101465.25;;;13.67;100.00
49104;BME280;34915;52.926;11.116;2023-05-23T12:48:01;101474.09;;;13.55;100.00
49104;BME280;34915;52.926;11.116;2023-05-23T12:50:28;101482.22;;;13.41;100.00
49104;BME280;34915;52.926;11.116;2023-05-23T12:52:54;101477.13;;;13.38;100.00
49104;BME280;34915;52.926;11.116;2023-05-23T12:55:20;101473.19;;;13.31;100.00
49104;BME280;34915;52.926;11.116;2023-05-23T12:57:46;101482.44;;;13.38;100.00
49104;BME280;34915;52.926;11.116;2023-05-23T13:00:12;101490.72;;;13.46;100.00
49104;BME280;34915;52.926;11.116;2023-05-23T13:02:37;101492.75;;;13.42;100.00
49104;BME280;34915;52.926;11.116;2023-05-23T13:05:04;101497.31;;;13.40;100.00